KHFJ

Monett Regional Airport

Monett, Missouri, USA
METAR KHFJ 232310Z AUTO 29005KT 10SM CLR 03/M02 A3023 RMK AO2
Observed Flight Rules
Jan-23 @ 23:10 UTC (24 minutes ago) Visual Flight Rules
Wind Visibility Clouds
290° at 5 knots 10 miles
  • Clear skies
Temperatures Readings
Current 3°C / 37°F
Dewpoint -2°C / 28°F
Humidity 70%
Altimeter 30.23" Hg
Pressure 1024 hPa
Elevation 401
METAR KHFJ 232310Z AUTO 29005KT 10SM CLR 03/M02 A3023 RMK AO2
Observed Flight Rules
Jan-23 @ 23:10 UTC
(24 minutes ago)
VFR
Wind Visibility
290° at 5 knots 10 miles
Clouds
  • Clear skies
Temperature Dewpoint
3°C / 37°F -2°C / 28°F
Humidity Altimeter Pressure
70% 30.23" Hg 1024 hPa